Time,TemperatureF,DewpointF,PressureIn,WindDirection,WindDirectionDegrees,WindSpeedMPH,WindSpeedGustMPH,Humidity,HourlyPrecipIn,Conditions,Clouds,dailyrainin,SoftwareType,DateUTC
2013-09-12 00:06:00,68.0,67.0,30.03,WSW,258,0.0,0.0,96,0.00,,,0.00,weatherlink.com 1.10,2013-09-12 04:06:00,
2013-09-12 00:21:00,67.6,67.0,30.02,West,259,0.0,0.0,96,0.00,,,0.00,weatherlink.com 1.10,2013-09-12 04:21:00,
2013-09-12 00:37:00,67.2,66.0,30.02,West,259,0.0,0.0,97,0.00,,,0.00,weatherlink.com 1.10,2013-09-12 04:37:00,
2013-09-12 00:51:00,67.0,66.0,30.02,West,259,0.0,0.0,97,0.00,,,0.00,weatherlink.com 1.10,2013-09-12 04:51:00,
2013-09-12 01:06:00,66.7,66.0,30.01,West,259,0.0,0.0,97,0.00,,,0.00,weatherlink.com 1.10,2013-09-12 05:06:00,
2013-09-12 01:21:00,66.4,66.0,30.01,WSW,258,0.0,0.0,97,0.00,,,0.00,weatherlink.com 1.10,2013-09-12 05:21:00,
2013-09-12 01:36:00,66.2,65.0,30.01,WSW,258,0.0,0.0,97,0.00,,,0.00,weatherlink.com 1.10,2013-09-12 05:36:00,
2013-09-12 01:51:00,66.0,65.0,30.01,West,259,0.0,0.0,97,0.00,,,0.00,weatherlink.com 1.10,2013-09-12 05:51:00,
2013-09-12 02:06:00,65.8,65.0,30.00,West,259,0.0,0.0,97,0.00,,,0.00,weatherlink.com 1.10,2013-09-12 06:06:00,
2013-09-12 02:21:00,65.7,65.0,30.00,West,259,0.0,0.0,97,0.00,,,0.00,weatherlink.com 1.10,2013-09-12 06:21:00,
2013-09-12 02:36:00,65.6,65.0,29.99,West,259,0.0,0.0,97,0.00,,,0.00,weatherlink.com 1.10,2013-09-12 06:36:00,
2013-09-12 02:51:00,65.5,65.0,29.99,WSW,258,0.0,0.0,97,0.00,,,0.00,weatherlink.com 1.10,2013-09-12 06:51:00,
2013-09-12 03:06:00,65.4,65.0,29.98,WSW,258,0.0,0.0,97,0.00,,,0.00,weatherlink.com 1.10,2013-09-12 07:06:00,
2013-09-12 03:21:00,65.4,65.0,29.98,West,259,0.0,0.0,97,0.00,,,0.00,weatherlink.com 1.10,2013-09-12 07:21:00,
2013-09-12 03:36:00,65.4,65.0,29.98,West,259,0.0,0.0,97,0.00,,,0.00,weatherlink.com 1.10,2013-09-12 07:36:00,
2013-09-12 03:51:00,65.5,65.0,29.98,West,259,0.0,0.0,97,0.00,,,0.00,weatherlink.com 1.10,2013-09-12 07:51:00,
2013-09-12 04:06:00,65.6,65.0,29.98,WSW,258,0.0,0.0,97,0.00,,,0.00,weatherlink.com 1.10,2013-09-12 08:06:00,
2013-09-12 04:22:00,65.9,65.0,29.97,WSW,258,0.0,0.0,97,0.00,,,0.00,weatherlink.com 1.10,2013-09-12 08:22:00,
2013-09-12 04:37:00,65.9,65.0,29.97,West,260,0.0,0.0,97,0.00,,,0.00,weatherlink.com 1.10,2013-09-12 08:37:00,
2013-09-12 04:52:00,65.8,65.0,29.97,West,260,0.0,0.0,97,0.00,,,0.00,weatherlink.com 1.10,2013-09-12 08:52:00,
2013-09-12 05:07:00,65.8,65.0,29.97,West,260,0.0,0.0,97,0.00,,,0.00,weatherlink.com 1.10,2013-09-12 09:07:00,
2013-09-12 05:22:00,65.7,65.0,29.97,West,260,0.0,0.0,97,0.00,,,0.00,weatherlink.com 1.10,2013-09-12 09:22:00,
2013-09-12 05:37:00,66.0,66.0,29.97,West,259,0.0,0.0,98,0.00,,,0.00,weatherlink.com 1.10,2013-09-12 09:37:00,
2013-09-12 05:52:00,66.4,66.0,29.97,WSW,258,0.0,0.0,98,0.00,,,0.00,weatherlink.com 1.10,2013-09-12 09:52:00,
2013-09-12 06:07:00,66.8,66.0,29.97,West,259,0.0,0.0,98,0.00,,,0.00,weatherlink.com 1.10,2013-09-12 10:07:00,
2013-09-12 06:22:00,67.2,67.0,29.97,West,276,1.0,1.0,98,0.00,,,0.00,weatherlink.com 1.10,2013-09-12 10:22:00,
2013-09-12 06:37:00,67.5,67.0,29.97,West,269,0.0,1.0,98,0.00,,,0.00,weatherlink.com 1.10,2013-09-12 10:37:00,
2013-09-12 06:52:00,67.7,67.0,29.96,West,270,0.0,0.0,98,0.00,,,0.00,weatherlink.com 1.10,2013-09-12 10:52:00,
2013-09-12 07:07:00,68.5,68.0,29.97,West,264,0.0,0.0,98,0.00,,,0.00,weatherlink.com 1.10,2013-09-12 11:07:00,
2013-09-12 07:22:00,68.6,68.0,29.96,West,264,0.0,0.0,98,0.00,,,0.00,weatherlink.com 1.10,2013-09-12 11:22:00,
2013-09-12 07:37:00,69.0,69.0,29.97,West,264,0.0,0.0,98,0.00,,,0.00,weatherlink.com 1.10,2013-09-12 11:37:00,
2013-09-12 07:52:00,69.4,69.0,29.96,West,264,0.0,0.0,98,0.00,,,0.00,weatherlink.com 1.10,2013-09-12 11:52:00,
2013-09-12 08:07:00,69.8,69.0,29.96,West,264,0.0,0.0,98,0.00,,,0.00,weatherlink.com 1.10,2013-09-12 12:07:00,
2013-09-12 08:23:00,70.1,70.0,29.95,West,264,0.0,0.0,98,0.00,,,0.00,weatherlink.com 1.10,2013-09-12 12:23:00,
2013-09-12 08:37:00,70.6,70.0,29.95,West,262,0.0,2.0,98,0.00,,,0.00,weatherlink.com 1.10,2013-09-12 12:37:00,
2013-09-12 08:52:00,71.4,71.0,29.95,WNW,291,1.0,3.0,98,0.00,,,0.00,weatherlink.com 1.10,2013-09-12 12:52:00,
2013-09-12 09:07:00,72.0,71.0,29.95,WSW,248,0.0,2.0,98,0.00,,,0.00,weatherlink.com 1.10,2013-09-12 13:07:00,
2013-09-12 09:22:00,72.6,72.0,29.95,SW,229,0.0,3.0,97,0.00,,,0.00,weatherlink.com 1.10,2013-09-12 13:22:00,
2013-09-12 09:37:00,73.2,72.0,29.94,WSW,245,3.0,5.0,97,0.00,,,0.00,weatherlink.com 1.10,2013-09-12 13:37:00,
2013-09-12 09:52:00,73.5,72.0,29.93,West,276,5.0,6.0,95,0.00,,,0.00,weatherlink.com 1.10,2013-09-12 13:52:00,
2013-09-12 10:07:00,73.9,72.0,29.93,West,279,0.0,7.0,95,0.00,,,0.00,weatherlink.com 1.10,2013-09-12 14:07:00,
2013-09-12 10:22:00,74.7,73.0,29.93,West,279,1.0,6.0,93,0.00,,,0.00,weatherlink.com 1.10,2013-09-12 14:22:00,
2013-09-12 10:37:00,75.6,72.0,29.92,West,269,3.0,8.0,89,0.00,,,0.00,weatherlink.com 1.10,2013-09-12 14:37:00,
2013-09-12 10:52:00,75.5,72.0,29.93,WNW,288,2.0,9.0,88,0.00,,,0.00,weatherlink.com 1.10,2013-09-12 14:52:00,
2013-09-12 11:07:00,75.9,72.0,29.92,WSW,257,1.0,7.0,87,0.00,,,0.00,weatherlink.com 1.10,2013-09-12 15:07:00,
2013-09-12 11:22:00,75.9,72.0,29.92,West,263,4.0,8.0,86,0.00,,,0.00,weatherlink.com 1.10,2013-09-12 15:22:00,
2013-09-12 11:37:00,75.7,71.0,29.92,WNW,287,2.0,5.0,86,0.00,,,0.00,weatherlink.com 1.10,2013-09-12 15:37:00,
2013-09-12 11:52:00,75.8,71.0,29.91,West,278,2.0,4.0,86,0.00,,,0.00,weatherlink.com 1.10,2013-09-12 15:52:00,
2013-09-12 12:07:00,76.1,72.0,29.91,West,281,2.0,3.0,86,0.00,,,0.00,weatherlink.com 1.10,2013-09-12 16:07:00,
2013-09-12 12:23:00,76.8,72.0,29.91,WSW,256,0.0,6.0,84,0.00,,,0.00,weatherlink.com 1.10,2013-09-12 16:23:00,
2013-09-12 12:38:00,76.1,71.0,29.92,WNW,300,2.0,6.0,85,0.00,,,0.00,weatherlink.com 1.10,2013-09-12 16:38:00,
2013-09-12 12:53:00,69.4,64.0,29.93,WSW,248,1.0,5.0,84,0.13,,,0.13,weatherlink.com 1.10,2013-09-12 16:53:00,
2013-09-12 13:08:00,67.0,64.0,29.93,SW,226,0.0,1.0,91,0.16,,,0.16,weatherlink.com 1.10,2013-09-12 17:08:00,
2013-09-12 13:23:00,66.3,64.0,29.94,SW,217,0.0,3.0,93,0.16,,,0.16,weatherlink.com 1.10,2013-09-12 17:23:00,
2013-09-12 13:38:00,66.2,65.0,29.92,South,170,0.0,0.0,94,0.17,,,0.17,weatherlink.com 1.10,2013-09-12 17:38:00,
2013-09-12 13:53:00,66.7,65.0,29.91,SSW,210,0.0,0.0,95,0.04,,,0.17,weatherlink.com 1.10,2013-09-12 17:53:00,
2013-09-12 14:08:00,67.6,66.0,29.90,SSW,208,0.0,0.0,95,0.01,,,0.17,weatherlink.com 1.10,2013-09-12 18:08:00,
2013-09-12 14:23:00,68.2,67.0,29.89,SW,235,1.0,3.0,94,0.01,,,0.17,weatherlink.com 1.10,2013-09-12 18:23:00,
2013-09-12 14:38:00,68.8,67.0,29.88,East,79,1.0,2.0,94,0.00,,,0.17,weatherlink.com 1.10,2013-09-12 18:38:00,
2013-09-12 14:53:00,69.4,68.0,29.86,SW,225,1.0,5.0,94,0.00,,,0.17,weatherlink.com 1.10,2013-09-12 18:53:00,
2013-09-12 15:08:00,70.1,68.0,29.86,SSW,212,3.0,8.0,92,0.00,,,0.17,weatherlink.com 1.10,2013-09-12 19:08:00,
2013-09-12 15:23:00,70.6,68.0,29.85,West,266,5.0,6.0,91,0.00,,,0.17,weatherlink.com 1.10,2013-09-12 19:23:00,
2013-09-12 15:38:00,71.7,68.0,29.85,WNW,284,4.0,8.0,89,0.00,,,0.17,weatherlink.com 1.10,2013-09-12 19:38:00,
2013-09-12 15:53:00,71.4,68.0,29.84,West,273,2.0,5.0,89,0.00,,,0.17,weatherlink.com 1.10,2013-09-12 19:53:00,
2013-09-12 16:08:00,71.7,68.0,29.83,West,279,2.0,3.0,89,0.00,,,0.17,weatherlink.com 1.10,2013-09-12 20:08:00,
2013-09-12 16:23:00,71.9,68.0,29.82,WNW,287,0.0,6.0,88,0.00,,,0.17,weatherlink.com 1.10,2013-09-12 20:23:00,
2013-09-12 16:38:00,71.6,68.0,29.82,WSW,248,0.0,6.0,89,0.00,,,0.17,weatherlink.com 1.10,2013-09-12 20:38:00,
2013-09-12 16:54:00,71.2,68.0,29.81,WSW,252,0.0,1.0,90,0.00,,,0.17,weatherlink.com 1.10,2013-09-12 20:54:00,
2013-09-12 17:08:00,70.7,68.0,29.80,West,263,0.0,1.0,91,0.00,,,0.17,weatherlink.com 1.10,2013-09-12 21:08:00,
2013-09-12 17:23:00,70.4,68.0,29.79,ESE,121,0.0,0.0,92,0.01,,,0.18,weatherlink.com 1.10,2013-09-12 21:23:00,
2013-09-12 17:38:00,70.2,68.0,29.80,West,280,0.0,1.0,92,0.01,,,0.18,weatherlink.com 1.10,2013-09-12 21:38:00,
2013-09-12 17:53:00,70.2,68.0,29.81,SSW,204,0.0,0.0,93,0.01,,,0.18,weatherlink.com 1.10,2013-09-12 21:53:00,
2013-09-12 18:08:00,70.1,68.0,29.81,SSW,204,0.0,0.0,94,0.01,,,0.18,weatherlink.com 1.10,2013-09-12 22:08:00,
2013-09-12 18:23:00,69.9,68.0,29.81,SSW,204,0.0,1.0,94,0.00,,,0.18,weatherlink.com 1.10,2013-09-12 22:23:00,
2013-09-12 18:38:00,69.8,68.0,29.81,SSE,159,0.0,1.0,94,0.00,,,0.18,weatherlink.com 1.10,2013-09-12 22:38:00,
2013-09-12 18:53:00,69.7,68.0,29.82,SSE,159,0.0,0.0,95,0.00,,,0.18,weatherlink.com 1.10,2013-09-12 22:53:00,
2013-09-12 19:08:00,69.6,68.0,29.82,SSE,159,0.0,0.0,95,0.00,,,0.18,weatherlink.com 1.10,2013-09-12 23:08:00,
2013-09-12 19:23:00,69.3,68.0,29.82,SSE,159,0.0,1.0,95,0.00,,,0.18,weatherlink.com 1.10,2013-09-12 23:23:00,
2013-09-12 19:38:00,69.3,68.0,29.82,SW,214,0.0,2.0,96,0.00,,,0.18,weatherlink.com 1.10,2013-09-12 23:38:00,
2013-09-12 19:53:00,67.5,65.0,29.81,West,277,0.0,4.0,92,0.01,,,0.19,weatherlink.com 1.10,2013-09-12 23:53:00,
2013-09-12 20:08:00,66.2,64.0,29.82,West,277,0.0,0.0,93,0.01,,,0.19,weatherlink.com 1.10,2013-09-13 00:08:00,
2013-09-12 20:23:00,65.4,64.0,29.82,West,277,0.0,1.0,94,0.01,,,0.19,weatherlink.com 1.10,2013-09-13 00:23:00,
2013-09-12 20:38:00,64.7,63.0,29.83,SW,221,0.0,1.0,94,0.01,,,0.19,weatherlink.com 1.10,2013-09-13 00:38:00,
2013-09-12 20:53:00,64.9,64.0,29.83,East,101,0.0,1.0,95,0.00,,,0.19,weatherlink.com 1.10,2013-09-13 00:53:00,
2013-09-12 21:08:00,65.2,64.0,29.83,SE,138,0.0,0.0,95,0.00,,,0.19,weatherlink.com 1.10,2013-09-13 01:08:00,
2013-09-12 21:23:00,65.1,64.0,29.83,SE,131,0.0,1.0,95,0.00,,,0.19,weatherlink.com 1.10,2013-09-13 01:23:00,
2013-09-12 21:38:00,64.7,63.0,29.82,NNE,12,0.0,1.0,95,0.00,,,0.19,weatherlink.com 1.10,2013-09-13 01:38:00,
2013-09-12 21:53:00,64.3,63.0,29.82,South,191,0.0,1.0,95,0.00,,,0.19,weatherlink.com 1.10,2013-09-13 01:53:00,
2013-09-12 22:08:00,64.0,62.0,29.82,ENE,60,0.0,2.0,94,0.00,,,0.19,weatherlink.com 1.10,2013-09-13 02:08:00,
2013-09-12 22:23:00,63.6,62.0,29.82,WNW,285,0.0,2.0,94,0.00,,,0.19,weatherlink.com 1.10,2013-09-13 02:23:00,
2013-09-12 22:38:00,63.0,62.0,29.82,WNW,285,0.0,0.0,95,0.00,,,0.19,weatherlink.com 1.10,2013-09-13 02:38:00,
2013-09-12 22:53:00,62.2,61.0,29.81,WNW,285,0.0,1.0,94,0.00,,,0.19,weatherlink.com 1.10,2013-09-13 02:53:00,
2013-09-12 23:09:00,61.1,60.0,29.81,WNW,285,0.0,0.0,95,0.00,,,0.19,weatherlink.com 1.10,2013-09-13 03:09:00,
2013-09-12 23:24:00,59.7,58.0,29.82,West,267,0.0,1.0,95,0.00,,,0.19,weatherlink.com 1.10,2013-09-13 03:24:00,
2013-09-12 23:39:00,59.5,58.0,29.83,West,269,0.0,0.0,96,0.00,,,0.19,weatherlink.com 1.10,2013-09-13 03:39:00,
2013-09-12 23:54:00,59.2,58.0,29.83,West,269,0.0,0.0,96,0.00,,,0.19,weatherlink.com 1.10,2013-09-13 03:54:00,